This is the latest recevied weather packets stored in our database for station/object KC9DRE. If no packets are shown the sender has not sent any weather packets the latest 10 day(s).
| Time | Temp. | Humidity | Pressure | Rain* | Wind** | Luminosity | Snow |
|---|---|---|---|---|---|---|---|
| 1787573695 | 13.89° C | 99% | 1018.9 hPa | 0 mm | - | 112 W/m² | - |
| 1787573390 | 13.89° C | 99% | 1018.6 hPa | 0 mm | - | 97 W/m² | - |
| 1787573086 | 12.78° C | 99% | 1018.7 hPa | 0 mm | - | 80 W/m² | - |
| 1787572776 | 12.22° C | 99% | 1018.8 hPa | 0 mm | - | 66 W/m² | - |
| 1787572472 | 11.67° C | 99% | 1018.9 hPa | 0 mm | - | 46 W/m² | - |
| 1787572167 | 11.67° C | 99% | 1018.6 hPa | 0 mm | - | 39 W/m² | - |
| 1787571866 | 11.67° C | 99% | 1018.7 hPa | 0 mm | - | 34 W/m² | - |
| 1787571561 | 11.67° C | 99% | 1018.6 hPa | 0 mm | - | 29 W/m² | - |
| 1787571259 | 11.67° C | 99% | 1018.6 hPa | 0 mm | - | 25 W/m² | - |
| 1787570955 | 11.67° C | 99% | 1018.7 hPa | 0 mm | - | 20 W/m² | - |
| 1787570651 | 11.67° C | 99% | 1018.6 hPa | 0 mm | - | 15 W/m² | - |
| 1787570347 | 11.67° C | 99% | 1018.5 hPa | 0 mm | - | 11 W/m² | - |
| 1787570043 | 11.67° C | 99% | 1018.5 hPa | 0 mm | - | 7 W/m² | - |
| 1787569740 | 11.11° C | 99% | 1018.4 hPa | 0 mm | - | 4 W/m² | - |
| 1787569434 | 11.11° C | 99% | 1018.6 hPa | 0 mm | - | 2 W/m² | - |
| 1787569133 | 11.11° C | 99% | 1018.4 hPa | 0 mm | - | 1 W/m² | - |
| 1787568828 | 11.11° C | 99% | 1018.5 hPa | 0 mm | - | 0 W/m² | - |
| 1787568524 | 11.11° C | 99% | 1018.4 hPa | 0 mm | - | 0 W/m² | - |
| 1787568220 | 11.11° C | 99% | 1018.4 hPa | 0 mm | - | 0 W/m² | - |
| 1787567915 | 11.11° C | 99% | 1018.3 hPa | 0 mm | - | 0 W/m² | - |
| 1787567611 | 11.11° C | 99% | 1018.2 hPa | 0 mm | - | 0 W/m² | - |
| 1787567310 | 11.67° C | 99% | 1018.4 hPa | 0 mm | - | 0 W/m² | - |
| 1787567010 | 11.67° C | 99% | 1018.3 hPa | 0 mm | - | 0 W/m² | - |
| 1787566704 | 11.67° C | 99% | 1018.1 hPa | 0 mm | - | 0 W/m² | - |
| 1787566399 | 11.67° C | 98% | 1018.4 hPa | 0 mm | - | 0 W/m² | - |
* Rain latest hour (hover to see other rain measurements)
** Current wind speed in m/s (hover to see current wind gust speed)